createdAt,value
2023-04-01T00:01:26.236Z,96782.31
2023-04-01T00:03:52.815Z,96783.88
2023-04-01T00:06:20.055Z,96785.84
2023-04-01T00:08:47.279Z,96783.34
2023-04-01T00:11:14.223Z,96792.25
2023-04-01T00:13:40.765Z,96783.84
2023-04-01T00:16:17.942Z,96781.22
2023-04-01T00:18:50.963Z,96781.03
2023-04-01T00:21:18.333Z,96782.47
2023-04-01T00:23:44.901Z,96768.38
2023-04-01T00:26:13.051Z,96771.72
2023-04-01T00:28:39.689Z,96780.97
2023-04-01T00:31:08.001Z,96776.31
2023-04-01T00:33:34.559Z,96781.31
2023-04-01T00:36:15.486Z,96781.19
2023-04-01T00:38:43.478Z,96775.09
2023-04-01T00:41:15.721Z,96770.59
2023-04-01T00:43:43.513Z,96771.78
2023-04-01T00:46:09.985Z,96769.53
2023-04-01T00:48:40.443Z,96773.78
2023-04-01T00:51:15.449Z,96775.88
2023-04-01T00:53:46.304Z,96774.97
2023-04-01T00:56:27.793Z,96774.78
2023-04-01T00:59:01.241Z,96782.91
2023-04-01T01:01:33.108Z,96776.09
2023-04-01T01:04:00.606Z,96770.81
2023-04-01T01:06:45.838Z,96766.47
2023-04-01T01:09:30.998Z,96761.81
2023-04-01T01:12:19.424Z,96761.94
2023-04-01T01:14:56.327Z,96771.19
2023-04-01T01:17:35.950Z,96769.50
2023-04-01T01:20:26.893Z,96767.72
2023-04-01T01:23:19.384Z,96772.72
2023-04-01T01:29:54.282Z,96770.28
2023-04-01T01:33:13.785Z,96762.34
2023-04-01T01:45:54.402Z,96754.19
2023-04-01T01:48:32.455Z,96754.09
2023-04-01T01:54:38.195Z,96759.25
2023-04-01T02:00:40.251Z,96753.84
2023-04-01T02:03:28.910Z,96740.38
2023-04-01T02:06:36.110Z,96741.78
2023-04-01T02:09:28.886Z,96740.38
2023-04-01T02:12:12.909Z,96745.50
2023-04-01T02:18:10.603Z,96728.72
2023-04-01T02:20:55.140Z,96736.13
2023-04-01T02:23:31.065Z,96743.00
2023-04-01T02:26:22.656Z,96740.38
2023-04-01T02:29:01.612Z,96738.78
2023-04-01T02:31:39.368Z,96748.72
2023-04-01T02:34:12.849Z,96746.94
2023-04-01T02:36:51.181Z,96751.09
2023-04-01T02:39:37.675Z,96751.91
2023-04-01T02:42:07.884Z,96755.56
2023-04-01T02:44:57.866Z,96752.19
2023-04-01T02:47:34.776Z,96754.97
2023-04-01T02:52:55.356Z,96760.84
2023-04-01T02:55:37.083Z,96759.25
2023-04-01T02:58:30.255Z,96766.25
2023-04-01T03:01:18.276Z,96757.66
2023-04-01T03:04:06.798Z,96762.59
2023-04-01T03:06:58.303Z,96761.72
2023-04-01T03:10:28.749Z,96769.25
2023-04-01T03:13:20.243Z,96765.16
2023-04-01T03:19:32.571Z,96771.31
2023-04-01T03:22:25.773Z,96767.94
2023-04-01T03:28:31.655Z,96780.19
2023-04-01T03:42:36.041Z,96783.13
2023-04-01T03:48:21.423Z,96789.66
2023-04-01T03:51:14.642Z,96798.03
2023-04-01T03:54:12.022Z,96795.41
2023-04-01T03:56:46.023Z,96801.31
2023-04-01T04:02:35.462Z,96790.47
2023-04-01T04:05:44.587Z,96801.31
2023-04-01T04:08:21.047Z,96796.44
2023-04-01T04:11:06.236Z,96801.41
2023-04-01T04:13:58.461Z,96802.41
2023-04-01T04:20:21.654Z,96802.81
2023-04-01T04:23:57.028Z,96800.94
2023-04-01T04:30:33.151Z,96801.28
2023-04-01T04:36:47.569Z,96811.81
2023-04-01T04:39:23.569Z,96800.84
2023-04-01T04:41:59.655Z,96811.81
2023-04-01T04:44:43.446Z,96811.94
2023-04-01T04:47:25.000Z,96818.75
2023-04-01T04:49:54.137Z,96815.28
2023-04-01T04:58:59.804Z,96814.03
2023-04-01T05:01:35.318Z,96817.88
2023-04-01T05:04:26.280Z,96814.03
2023-04-01T05:07:09.074Z,96815.78
2023-04-01T05:09:46.504Z,96810.81
2023-04-01T05:12:42.368Z,96809.06
2023-04-01T05:15:22.147Z,96807.84
2023-04-01T05:24:14.643Z,96805.34
2023-04-01T05:26:54.686Z,96814.66
2023-04-01T05:29:36.316Z,96816.06
2023-04-01T05:32:11.544Z,96807.47
2023-04-01T05:34:44.693Z,96809.25
2023-04-01T05:37:21.156Z,96816.97
2023-04-01T05:39:52.780Z,96813.44
2023-04-01T05:42:32.918Z,96814.53
2023-04-01T05:45:02.613Z,96809.53
2023-04-01T05:47:32.553Z,96812.84
2023-04-01T05:50:03.641Z,96807.72
2023-04-01T05:52:32.109Z,96814.84
2023-04-01T05:55:07.709Z,96807.09
2023-04-01T05:57:36.329Z,96807.97
2023-04-01T06:00:08.094Z,96810.41
2023-04-01T06:02:34.724Z,96813.13
2023-04-01T06:05:27.510Z,96812.09
2023-04-01T06:08:02.374Z,96807.72
2023-04-01T06:11:08.414Z,96818.03
2023-04-01T06:14:01.729Z,96822.22
2023-04-01T06:16:55.392Z,96816.00
2023-04-01T06:19:48.472Z,96817.75
2023-04-01T06:22:46.253Z,96818.03
2023-04-01T06:25:41.583Z,96829.16
2023-04-01T06:28:44.559Z,96827.66
2023-04-01T06:31:51.203Z,96820.28
2023-04-01T06:34:49.760Z,96815.44
2023-04-01T06:37:51.750Z,96814.09
2023-04-01T06:40:45.821Z,96819.44
2023-04-01T06:43:42.202Z,96826.31
2023-04-01T06:46:28.924Z,96824.56
2023-04-01T06:49:21.759Z,96825.38
2023-04-01T06:52:06.062Z,96824.72
2023-04-01T06:54:39.302Z,96825.06
2023-04-01T06:57:20.308Z,96831.19
2023-04-01T06:59:53.643Z,96825.00
2023-04-01T07:02:32.832Z,96817.88
2023-04-01T07:05:00.556Z,96812.72
2023-04-01T07:11:02.529Z,96815.91
2023-04-01T07:13:53.417Z,96818.03
2023-04-01T07:16:35.914Z,96812.84
2023-04-01T07:19:42.235Z,96814.66
2023-04-01T07:22:49.556Z,96816.94
2023-04-01T07:25:57.332Z,96813.47
2023-04-01T07:28:23.851Z,96811.88
2023-04-01T07:30:58.597Z,96812.66
2023-04-01T07:33:40.349Z,96810.91
2023-04-01T07:36:23.232Z,96816.66
2023-04-01T07:39:00.308Z,96822.41
2023-04-01T07:41:57.351Z,96814.13
2023-04-01T07:44:41.160Z,96835.31
2023-04-01T07:47:16.734Z,96824.84
2023-04-01T07:49:54.331Z,96829.28
2023-04-01T07:52:39.522Z,96834.75
2023-04-01T07:55:14.998Z,96828.38
2023-04-01T07:57:56.938Z,96840.88
2023-04-01T08:01:03.980Z,96830.13
2023-04-01T08:03:54.195Z,96828.84
2023-04-01T08:06:29.586Z,96838.44
2023-04-01T08:09:31.425Z,96835.28
2023-04-01T08:12:36.963Z,96841.56
2023-04-01T08:15:22.370Z,96829.53
2023-04-01T08:18:06.769Z,96835.97
2023-04-01T08:20:45.398Z,96835.13
2023-04-01T08:23:17.146Z,96827.56
2023-04-01T08:26:22.480Z,96837.00
2023-04-01T08:29:13.119Z,96838.00
2023-04-01T08:31:58.631Z,96839.59
2023-04-01T08:34:36.284Z,96831.50
2023-04-01T08:37:09.039Z,96836.34
2023-04-01T08:39:58.132Z,96835.88
2023-04-01T08:42:52.145Z,96839.97
2023-04-01T08:45:57.752Z,96828.84
2023-04-01T08:48:36.632Z,96832.16
2023-04-01T08:51:40.654Z,96821.44
2023-04-01T08:54:33.397Z,96832.25
2023-04-01T08:57:12.086Z,96837.00
2023-04-01T08:59:57.148Z,96830.81
2023-04-01T09:02:46.932Z,96838.47
2023-04-01T09:05:40.424Z,96833.00
2023-04-01T09:08:25.288Z,96833.53
2023-04-01T09:11:22.340Z,96842.94
2023-04-01T09:14:06.167Z,96841.97
2023-04-01T09:16:44.731Z,96834.81
2023-04-01T09:19:24.887Z,96842.53
2023-04-01T09:22:29.199Z,96832.88
2023-04-01T09:25:26.043Z,96837.72
2023-04-01T09:28:11.233Z,96829.03
2023-04-01T09:31:03.463Z,96831.94
2023-04-01T09:34:07.609Z,96834.53
2023-04-01T09:36:56.916Z,96826.81
2023-04-01T09:39:43.284Z,96839.09
2023-04-01T09:43:07.166Z,96837.25
2023-04-01T09:45:55.312Z,96840.81
2023-04-01T09:48:46.106Z,96838.69
2023-04-01T09:51:38.340Z,96846.19
2023-04-01T09:54:38.775Z,96841.03
2023-04-01T09:57:28.321Z,96843.69
2023-04-01T10:00:10.904Z,96845.59
2023-04-01T10:03:04.517Z,96848.00
2023-04-01T10:05:56.243Z,96858.16
2023-04-01T10:08:41.465Z,96852.69
2023-04-01T10:11:32.495Z,96847.91
2023-04-01T10:14:17.482Z,96852.66
2023-04-01T10:17:02.738Z,96853.13
2023-04-01T10:19:56.920Z,96861.66
2023-04-01T10:22:55.874Z,96856.91
2023-04-01T10:25:39.654Z,96855.22
2023-04-01T10:28:31.228Z,96861.50
2023-04-01T10:31:35.345Z,96854.72
2023-04-01T10:34:23.628Z,96857.63
2023-04-01T10:36:59.003Z,96852.69
2023-04-01T10:39:36.170Z,96847.19
2023-04-01T10:42:35.933Z,96847.56
2023-04-01T10:45:47.339Z,96849.41
2023-04-01T10:48:46.664Z,96850.28
2023-04-01T10:51:26.445Z,96839.28
2023-04-01T10:54:19.692Z,96845.38
2023-04-01T10:57:12.402Z,96845.00
2023-04-01T10:59:57.769Z,96846.19
2023-04-01T11:03:02.061Z,96848.66
2023-04-01T11:05:54.323Z,96845.63
2023-04-01T11:08:59.100Z,96838.59
2023-04-01T11:11:37.363Z,96850.38
2023-04-01T11:14:37.563Z,96849.94
2023-04-01T11:17:24.152Z,96849.88
2023-04-01T11:20:11.173Z,96844.81
2023-04-01T11:23:14.778Z,96845.84
2023-04-01T11:25:49.628Z,96844.66
2023-04-01T11:28:36.137Z,96848.41
2023-04-01T11:31:24.729Z,96850.03
2023-04-01T11:34:23.386Z,96845.84
2023-04-01T11:36:56.611Z,96836.38
2023-04-01T11:39:49.523Z,96840.06
2023-04-01T11:42:21.107Z,96844.88
2023-04-01T11:44:59.798Z,96838.59
2023-04-01T11:47:40.245Z,96841.44
2023-04-01T11:50:26.930Z,96844.97
2023-04-01T11:53:28.868Z,96851.72
2023-04-01T11:56:35.905Z,96845.38
2023-04-01T11:59:32.945Z,96843.06
2023-04-01T12:02:29.472Z,96851.28
2023-04-01T12:05:46.630Z,96848.78
2023-04-01T12:08:34.348Z,96853.00
2023-04-01T12:11:23.815Z,96856.28
2023-04-01T12:14:16.803Z,96857.56
2023-04-01T12:17:01.864Z,96859.28
2023-04-01T12:19:52.689Z,96853.38
2023-04-01T12:22:25.789Z,96855.19
2023-04-01T12:25:01.380Z,96857.81
2023-04-01T12:27:57.643Z,96863.81
2023-04-01T12:30:56.202Z,96859.84
2023-04-01T12:33:48.978Z,96861.97
2023-04-01T12:36:49.290Z,96863.72
2023-04-01T12:39:52.704Z,96856.59
2023-04-01T12:42:40.288Z,96855.69
2023-04-01T12:45:28.523Z,96860.94
2023-04-01T12:48:01.818Z,96855.72
2023-04-01T12:50:53.568Z,96866.28
2023-04-01T12:53:41.294Z,96857.63
2023-04-01T12:56:24.122Z,96853.78
2023-04-01T12:59:01.519Z,96866.59
2023-04-01T13:01:55.942Z,96856.78
2023-04-01T13:05:00.907Z,96863.59
2023-04-01T13:07:30.266Z,96866.13
2023-04-01T13:10:14.913Z,96868.00
2023-04-01T13:12:57.971Z,96868.94
2023-04-01T13:15:34.601Z,96863.50
2023-04-01T13:18:32.032Z,96866.28
2023-04-01T13:21:10.217Z,96875.94
2023-04-01T13:24:11.595Z,96873.22
2023-04-01T13:26:42.473Z,96874.91
2023-04-01T13:32:04.076Z,96877.38
2023-04-01T13:34:48.594Z,96882.69
2023-04-01T13:37:37.578Z,96881.84
2023-04-01T13:40:22.415Z,96879.31
2023-04-01T13:42:58.230Z,96877.56
2023-04-01T13:45:39.237Z,96879.66
2023-04-01T13:48:28.286Z,96878.31
2023-04-01T13:54:20.595Z,96883.00
2023-04-01T13:57:21.627Z,96886.47
2023-04-01T14:00:16.483Z,96882.50
2023-04-01T14:03:20.988Z,96882.22
2023-04-01T14:06:20.498Z,96881.03
2023-04-01T14:09:11.971Z,96886.03
2023-04-01T14:11:58.979Z,96887.41
2023-04-01T14:14:54.680Z,96892.97
2023-04-01T14:17:45.587Z,96895.94
2023-04-01T14:20:27.626Z,96898.09
2023-04-01T14:23:36.974Z,96896.84
2023-04-01T14:26:22.419Z,96903.38
2023-04-01T14:29:10.480Z,96902.66
2023-04-01T14:32:12.747Z,96907.00
2023-04-01T14:34:59.365Z,96909.41
2023-04-01T14:38:07.712Z,96906.84
2023-04-01T14:40:53.005Z,96912.53
2023-04-01T14:43:43.643Z,96909.75
2023-04-01T14:47:09.994Z,96909.03
2023-04-01T14:50:49.838Z,96914.97
2023-04-01T14:53:40.453Z,96916.00
2023-04-01T14:56:49.480Z,96907.44
2023-04-01T15:00:30.708Z,96918.63
2023-04-01T15:03:10.079Z,96909.94
2023-04-01T15:06:07.170Z,96918.69
2023-04-01T15:09:07.688Z,96918.25
2023-04-01T15:11:47.740Z,96921.91
2023-04-01T15:14:14.215Z,96918.09
2023-04-01T15:17:09.116Z,96915.31
2023-04-01T15:20:14.976Z,96918.09
2023-04-01T15:22:56.770Z,96927.59
2023-04-01T15:25:29.359Z,96926.91
2023-04-01T15:28:17.880Z,96932.19
2023-04-01T15:31:23.945Z,96928.28
2023-04-01T15:34:36.986Z,96922.44
2023-04-01T15:37:15.719Z,96936.75
2023-04-01T15:40:01.068Z,96930.16
2023-04-01T15:42:49.328Z,96937.03
2023-04-01T15:45:28.467Z,96936.91
2023-04-01T15:48:21.730Z,96940.88
2023-04-01T15:50:52.910Z,96941.84
2023-04-01T15:53:37.608Z,96945.88
2023-04-01T15:56:28.739Z,96941.09
2023-04-01T15:59:17.103Z,96948.72
2023-04-01T16:02:20.801Z,96951.75
2023-04-01T16:05:02.669Z,96947.94
2023-04-01T16:07:54.314Z,96950.03
2023-04-01T16:10:42.683Z,96955.25
2023-04-01T16:13:43.913Z,96954.59
2023-04-01T16:16:16.512Z,96959.75
2023-04-01T16:18:52.358Z,96954.00
2023-04-01T16:21:21.955Z,96962.81
2023-04-01T16:23:58.342Z,96964.50
2023-04-01T16:26:40.303Z,96973.16
2023-04-01T16:29:16.156Z,96970.88
2023-04-01T16:31:56.816Z,96978.66
2023-04-01T16:34:48.873Z,96975.78
2023-04-01T16:37:22.988Z,96975.19
2023-04-01T16:40:17.145Z,96975.19
2023-04-01T16:42:53.810Z,96985.34
2023-04-01T16:45:32.650Z,96990.47
2023-04-01T16:48:10.614Z,96982.28
2023-04-01T16:51:14.222Z,96990.09
2023-04-01T16:53:47.280Z,96991.91
2023-04-01T16:56:21.953Z,97000.72
2023-04-01T16:59:08.244Z,96999.63
2023-04-01T17:01:56.632Z,97004.81
2023-04-01T17:04:35.431Z,97000.78
2023-04-01T17:07:11.442Z,97005.91
2023-04-01T17:10:09.249Z,97004.28
2023-04-01T17:13:16.820Z,97009.44
2023-04-01T17:16:03.292Z,97006.16
2023-04-01T17:18:45.581Z,97006.25
2023-04-01T17:21:25.111Z,97009.78
2023-04-01T17:23:55.795Z,97014.94
2023-04-01T17:26:33.398Z,97017.50
2023-04-01T17:29:13.018Z,97020.94
2023-04-01T17:32:16.679Z,97026.06
2023-04-01T17:35:08.684Z,97026.47
2023-04-01T17:38:09.385Z,97031.56
2023-04-01T17:41:12.081Z,97042.19
2023-04-01T17:44:36.027Z,97039.75
2023-04-01T17:47:13.219Z,97051.03
2023-04-01T17:49:58.353Z,97051.28
2023-04-01T17:52:24.875Z,97052.13
2023-04-01T17:55:20.584Z,97061.38
2023-04-01T17:58:17.354Z,97063.16
2023-04-01T18:01:28.317Z,97057.31
2023-04-01T18:04:21.371Z,97061.91
2023-04-01T18:07:27.620Z,97065.38
2023-04-01T18:10:34.277Z,97073.47
2023-04-01T18:13:42.183Z,97067.22
2023-04-01T18:16:23.158Z,97078.47
2023-04-01T18:19:12.845Z,97077.47
2023-04-01T18:25:10.657Z,97087.47
2023-04-01T18:28:03.606Z,97090.94
2023-04-01T18:37:56.969Z,97096.81
2023-04-01T18:41:04.761Z,97103.56
2023-04-01T18:43:42.917Z,97105.06
2023-04-01T18:47:05.403Z,97105.97
2023-04-01T18:49:53.792Z,97111.78
2023-04-01T18:52:35.140Z,97116.34
2023-04-01T18:55:01.605Z,97113.91
2023-04-01T18:57:41.826Z,97117.28
2023-04-01T19:00:19.775Z,97124.06
2023-04-01T19:02:52.659Z,97131.75
2023-04-01T19:05:33.353Z,97131.75
2023-04-01T19:08:32.806Z,97137.78
2023-04-01T19:11:25.197Z,97132.44
2023-04-01T19:14:01.914Z,97130.06
2023-04-01T19:16:49.800Z,97141.72
2023-04-01T19:19:33.391Z,97138.38
2023-04-01T19:22:18.529Z,97142.56
2023-04-01T19:25:18.240Z,97144.91
2023-04-01T19:28:04.766Z,97133.19
2023-04-01T19:30:57.464Z,97142.72
2023-04-01T19:33:36.210Z,97143.47
2023-04-01T19:36:07.666Z,97137.50
2023-04-01T19:38:53.790Z,97143.53
2023-04-01T19:41:31.242Z,97149.47
2023-04-01T19:44:21.248Z,97150.22
2023-04-01T19:46:54.297Z,97155.28
2023-04-01T19:49:37.477Z,97153.00
2023-04-01T19:52:11.311Z,97150.41
2023-04-01T19:54:52.854Z,97153.66
2023-04-01T19:57:25.589Z,97152.66
2023-04-01T20:00:02.850Z,97157.97
2023-04-01T20:02:58.156Z,97163.16
2023-04-01T20:05:39.999Z,97167.56
2023-04-01T20:08:37.709Z,97174.31
2023-04-01T20:11:29.627Z,97175.31
2023-04-01T20:14:30.842Z,97167.44
2023-04-01T20:17:09.675Z,97172.59
2023-04-01T20:19:58.742Z,97177.72
2023-04-01T20:22:33.526Z,97189.66
2023-04-01T20:25:45.735Z,97186.28
2023-04-01T20:28:26.221Z,97189.66
2023-04-01T20:31:11.018Z,97193.00
2023-04-01T20:34:12.089Z,97192.19
2023-04-01T20:37:02.741Z,97191.34
2023-04-01T20:40:13.551Z,97192.28
2023-04-01T20:43:26.099Z,97193.13
2023-04-01T20:45:59.320Z,97201.75
2023-04-01T20:48:41.426Z,97197.38
2023-04-01T20:51:16.410Z,97201.50
2023-04-01T20:54:22.021Z,97201.38
2023-04-01T20:57:10.587Z,97204.94
2023-04-01T20:59:51.383Z,97209.78
2023-04-01T21:02:33.806Z,97212.41
2023-04-01T21:05:12.400Z,97215.84
2023-04-01T21:07:56.462Z,97215.78
2023-04-01T21:10:44.584Z,97221.75
2023-04-01T21:13:19.548Z,97225.13
2023-04-01T21:16:11.373Z,97224.38
2023-04-01T21:18:54.664Z,97220.97
2023-04-01T21:21:45.159Z,97236.47
2023-04-01T21:24:14.286Z,97236.38
2023-04-01T21:26:44.284Z,97239.72
2023-04-01T21:29:45.973Z,97239.00
2023-04-01T21:32:25.563Z,97240.66
2023-04-01T21:35:17.571Z,97248.44
2023-04-01T21:38:10.281Z,97257.75
2023-04-01T21:40:44.578Z,97263.00
2023-04-01T21:43:23.738Z,97263.88
2023-04-01T21:46:21.195Z,97267.41
2023-04-01T21:49:19.393Z,97268.25
2023-04-01T21:52:13.143Z,97273.28
2023-04-01T21:55:03.888Z,97279.84
2023-04-01T21:58:14.119Z,97286.16
2023-04-01T22:01:04.220Z,97286.34
2023-04-01T22:04:03.499Z,97292.34
2023-04-01T22:06:38.783Z,97285.44
2023-04-01T22:09:24.358Z,97287.34
2023-04-01T22:12:03.894Z,97290.56
2023-04-01T22:14:57.518Z,97292.59
2023-04-01T22:17:40.315Z,97297.59
2023-04-01T22:20:31.396Z,97298.38
2023-04-01T22:23:11.307Z,97301.16
2023-04-01T22:25:58.814Z,97303.06
2023-04-01T22:28:38.994Z,97300.53
2023-04-01T22:31:07.880Z,97307.56
2023-04-01T22:33:48.760Z,97305.53
2023-04-01T22:36:53.608Z,97314.88
2023-04-01T22:39:38.051Z,97318.50
2023-04-01T22:42:26.303Z,97315.22
2023-04-01T22:45:24.154Z,97317.72
2023-04-01T22:48:02.368Z,97324.53
2023-04-01T22:50:32.730Z,97323.03
2023-04-01T22:53:38.042Z,97324.00
2023-04-01T22:56:11.998Z,97334.06
2023-04-01T22:58:43.560Z,97331.44
2023-04-01T23:01:17.844Z,97327.16
2023-04-01T23:03:47.625Z,97333.19
2023-04-01T23:06:21.477Z,97331.38
2023-04-01T23:09:08.954Z,97329.84
2023-04-01T23:11:58.656Z,97332.53
2023-04-01T23:14:51.744Z,97331.56
2023-04-01T23:17:42.301Z,97340.78
2023-04-01T23:20:56.181Z,97338.22
2023-04-01T23:23:46.307Z,97341.66
2023-04-01T23:26:32.111Z,97342.72
2023-04-01T23:29:00.508Z,97350.16
2023-04-01T23:31:42.003Z,97346.06
2023-04-01T23:34:14.630Z,97349.50
2023-04-01T23:36:48.522Z,97357.06
2023-04-01T23:39:29.433Z,97354.44
2023-04-01T23:42:15.717Z,97359.56
2023-04-01T23:44:44.667Z,97364.97
2023-04-01T23:47:18.104Z,97361.56
2023-04-01T23:49:51.886Z,97367.63
2023-04-01T23:52:24.446Z,97365.91
2023-04-01T23:55:12.884Z,97374.31
2023-04-01T23:57:40.329Z,97371.69
